createdAt,value
2018-12-11T00:00:14.855Z,99.90
2018-12-11T00:02:43.121Z,99.90
2018-12-11T00:05:11.483Z,99.90
2018-12-11T00:07:39.751Z,99.90
2018-12-11T00:10:08.020Z,99.60
2018-12-11T00:12:36.238Z,99.90
2018-12-11T00:15:05.231Z,99.90
2018-12-11T00:17:33.409Z,99.90
2018-12-11T00:20:01.681Z,99.90
2018-12-11T00:22:29.849Z,99.90
2018-12-11T00:24:58.095Z,99.90
2018-12-11T00:27:26.359Z,99.90
2018-12-11T00:29:54.563Z,99.90
2018-12-11T00:32:22.768Z,99.90
2018-12-11T00:34:50.983Z,99.90
2018-12-11T00:37:19.289Z,99.90
2018-12-11T00:39:47.550Z,99.90
2018-12-11T00:42:15.825Z,99.90
2018-12-11T00:44:44.022Z,99.90
2018-12-11T00:47:12.232Z,99.90
2018-12-11T00:49:40.513Z,99.90
2018-12-11T00:52:08.737Z,99.90
2018-12-11T00:54:37.152Z,99.90
2018-12-11T00:57:05.446Z,99.90
2018-12-11T00:59:33.682Z,99.90
2018-12-11T01:02:01.920Z,99.90
2018-12-11T01:04:30.094Z,99.90
2018-12-11T01:06:58.331Z,99.90
2018-12-11T01:09:26.618Z,99.90
2018-12-11T01:11:54.874Z,99.80
2018-12-11T01:14:23.162Z,98.70
2018-12-11T01:16:51.386Z,96.90
2018-12-11T01:19:19.679Z,97.00
2018-12-11T01:21:47.855Z,97.20
2018-12-11T01:24:16.121Z,97.30
2018-12-11T01:26:44.383Z,96.80
2018-12-11T01:29:12.574Z,97.00
2018-12-11T01:31:40.757Z,96.90
2018-12-11T01:34:08.940Z,97.00
2018-12-11T01:36:37.198Z,97.30
2018-12-11T01:39:08.542Z,96.40
2018-12-11T01:41:37.069Z,95.80
2018-12-11T01:44:05.333Z,94.60
2018-12-11T01:46:33.615Z,95.40
2018-12-11T01:49:01.817Z,96.30
2018-12-11T01:51:30.043Z,95.80
2018-12-11T01:53:58.303Z,96.10
2018-12-11T01:56:26.577Z,96.30
2018-12-11T01:58:54.803Z,96.50
2018-12-11T02:01:23.018Z,96.10
2018-12-11T02:03:51.443Z,95.80
2018-12-11T02:06:19.616Z,95.90
2018-12-11T02:08:47.745Z,95.20
2018-12-11T02:11:15.965Z,94.50
2018-12-11T02:13:44.196Z,94.70
2018-12-11T02:16:12.398Z,95.10
2018-12-11T02:18:40.591Z,95.30
2018-12-11T02:21:08.802Z,95.60
2018-12-11T02:23:36.910Z,94.80
2018-12-11T02:26:05.222Z,94.40
2018-12-11T02:28:33.473Z,95.00
2018-12-11T02:31:01.695Z,95.00
2018-12-11T02:33:29.949Z,95.40
2018-12-11T02:35:58.154Z,93.70
2018-12-11T02:38:26.411Z,94.60
2018-12-11T02:40:54.581Z,94.30
2018-12-11T02:43:22.816Z,94.70
2018-12-11T02:45:51.022Z,94.20
2018-12-11T02:48:19.250Z,93.70
2018-12-11T02:50:47.439Z,93.40
2018-12-11T02:53:15.679Z,93.90
2018-12-11T02:55:43.890Z,91.90
2018-12-11T02:58:12.098Z,92.00
2018-12-11T03:00:40.271Z,91.70
2018-12-11T03:03:08.551Z,92.40
2018-12-11T03:05:36.802Z,91.90
2018-12-11T03:08:05.048Z,92.50
2018-12-11T03:10:33.441Z,92.70
2018-12-11T03:13:01.687Z,93.10
2018-12-11T03:15:29.867Z,93.00
2018-12-11T03:17:58.103Z,92.30
2018-12-11T03:20:26.274Z,92.20
2018-12-11T03:22:54.560Z,92.40
2018-12-11T03:25:22.803Z,91.10
2018-12-11T03:27:50.961Z,92.30
2018-12-11T03:30:19.185Z,93.20
2018-12-11T03:32:47.428Z,91.90
2018-12-11T03:35:15.758Z,91.60
2018-12-11T03:37:44.007Z,91.00
2018-12-11T03:40:12.261Z,91.90
2018-12-11T03:42:40.467Z,91.30
2018-12-11T03:45:08.730Z,92.10
2018-12-11T03:47:36.889Z,91.30
2018-12-11T03:50:05.458Z,91.70
2018-12-11T03:52:33.799Z,93.00
2018-12-11T03:55:02.070Z,93.50
2018-12-11T03:57:30.328Z,93.20
2018-12-11T03:59:58.658Z,93.50
2018-12-11T04:02:26.973Z,92.30
2018-12-11T04:04:55.186Z,92.80
2018-12-11T04:07:23.436Z,93.10
2018-12-11T04:09:51.583Z,93.40
2018-12-11T04:12:20.141Z,94.00
2018-12-11T04:14:48.510Z,93.50
2018-12-11T04:17:16.950Z,93.40
2018-12-11T04:19:45.207Z,93.00
2018-12-11T04:22:13.503Z,93.60
2018-12-11T04:24:41.696Z,94.60
2018-12-11T04:27:09.914Z,95.10
2018-12-11T04:29:38.159Z,95.40
2018-12-11T04:32:06.423Z,95.60
2018-12-11T04:34:34.653Z,95.00
2018-12-11T04:37:02.888Z,95.90
2018-12-11T04:39:34.072Z,95.80
2018-12-11T04:42:01.273Z,95.80
2018-12-11T04:44:29.482Z,96.00
2018-12-11T04:46:57.630Z,96.50
2018-12-11T04:49:25.801Z,96.30
2018-12-11T04:51:54.037Z,95.60
2018-12-11T04:54:22.251Z,95.30
2018-12-11T04:56:50.467Z,96.00
2018-12-11T04:59:18.748Z,96.70
2018-12-11T05:01:46.904Z,97.00
2018-12-11T05:04:15.134Z,96.40
2018-12-11T05:06:43.466Z,95.90
2018-12-11T05:09:11.752Z,94.40
2018-12-11T05:11:39.903Z,95.50
2018-12-11T05:14:08.304Z,95.80
2018-12-11T05:16:36.547Z,96.50
2018-12-11T05:19:04.765Z,94.10
2018-12-11T05:21:33.090Z,94.10
2018-12-11T05:24:01.396Z,94.00
2018-12-11T05:26:29.622Z,94.10
2018-12-11T05:28:57.831Z,94.30
2018-12-11T05:31:26.086Z,94.50
2018-12-11T05:33:56.348Z,94.10
2018-12-11T05:36:24.607Z,93.00
2018-12-11T05:38:52.710Z,93.60
2018-12-11T05:41:20.990Z,92.30
2018-12-11T05:43:49.227Z,91.90
2018-12-11T05:46:17.381Z,93.70
2018-12-11T05:48:45.698Z,93.40
2018-12-11T05:51:13.915Z,93.70
2018-12-11T05:53:42.223Z,93.10
2018-12-11T05:56:10.445Z,91.60
2018-12-11T05:58:38.878Z,91.90
2018-12-11T06:01:07.150Z,92.10
2018-12-11T06:03:35.382Z,89.30
2018-12-11T06:06:03.691Z,88.80
2018-12-11T06:08:31.991Z,86.50
2018-12-11T06:11:00.180Z,87.30
2018-12-11T06:13:28.491Z,86.10
2018-12-11T06:15:56.746Z,84.80
2018-12-11T06:18:25.062Z,83.90
2018-12-11T06:20:53.237Z,84.30
2018-12-11T06:23:21.448Z,83.80
2018-12-11T06:25:49.739Z,82.50
2018-12-11T06:28:17.991Z,83.20
2018-12-11T06:30:46.365Z,83.80
2018-12-11T06:33:14.633Z,84.20
2018-12-11T06:35:43.050Z,85.80
2018-12-11T06:38:11.266Z,87.60
2018-12-11T06:40:39.490Z,87.70
2018-12-11T06:43:07.731Z,88.30
2018-12-11T06:45:36.020Z,88.00
2018-12-11T06:48:04.190Z,89.30
2018-12-11T06:50:32.362Z,89.10
2018-12-11T06:53:00.643Z,89.90
2018-12-11T06:55:28.897Z,91.60
2018-12-11T06:57:57.119Z,91.90
2018-12-11T07:00:25.344Z,92.50
2018-12-11T07:02:53.521Z,93.50
2018-12-11T07:05:21.812Z,93.30
2018-12-11T07:07:50.036Z,95.10
2018-12-11T07:10:18.153Z,96.30
2018-12-11T07:12:46.265Z,95.40
2018-12-11T07:15:14.495Z,96.20
2018-12-11T07:17:42.713Z,96.90
2018-12-11T07:20:10.943Z,96.70
2018-12-11T07:22:39.155Z,97.40
2018-12-11T07:25:07.454Z,96.40
2018-12-11T07:27:35.694Z,97.70
2018-12-11T07:30:04.369Z,97.30
2018-12-11T07:32:32.581Z,99.30
2018-12-11T07:35:00.708Z,98.60
2018-12-11T07:37:28.925Z,98.70
2018-12-11T07:39:57.168Z,98.60
2018-12-11T07:42:25.379Z,98.70
2018-12-11T07:44:53.597Z,98.90
2018-12-11T07:47:21.863Z,98.30
2018-12-11T07:49:50.104Z,99.40
2018-12-11T07:52:18.336Z,99.70
2018-12-11T07:54:46.536Z,99.90
2018-12-11T07:57:14.765Z,99.20
2018-12-11T07:59:43.087Z,99.90
2018-12-11T08:02:11.278Z,99.90
2018-12-11T08:04:39.474Z,99.90
2018-12-11T08:07:07.652Z,99.90
2018-12-11T08:09:35.888Z,99.90
2018-12-11T08:12:08.322Z,99.90
2018-12-11T08:14:34.339Z,99.90
2018-12-11T08:17:02.638Z,99.90
2018-12-11T08:19:30.901Z,99.90
2018-12-11T08:21:59.151Z,99.90
2018-12-11T08:24:27.411Z,99.90
2018-12-11T08:26:55.726Z,99.90
2018-12-11T08:29:24.082Z,99.90
2018-12-11T08:31:52.301Z,99.90
2018-12-11T08:34:20.547Z,99.90
2018-12-11T08:36:48.666Z,99.90
2018-12-11T08:39:16.932Z,99.90
2018-12-11T08:41:45.214Z,99.90
2018-12-11T08:44:13.477Z,99.90
2018-12-11T08:46:41.768Z,99.90
2018-12-11T08:49:09.997Z,99.90
2018-12-11T08:51:38.192Z,99.90
2018-12-11T08:54:06.524Z,99.90
2018-12-11T08:56:34.750Z,99.90
2018-12-11T08:59:06.473Z,99.90
2018-12-11T09:01:33.287Z,99.90
2018-12-11T09:04:02.660Z,99.90
2018-12-11T09:06:30.857Z,99.90
2018-12-11T09:08:59.050Z,99.90
2018-12-11T09:11:27.301Z,99.90
2018-12-11T09:13:55.549Z,99.90
2018-12-11T09:16:23.781Z,99.90
2018-12-11T09:18:52.051Z,99.90
2018-12-11T09:21:20.290Z,99.90
2018-12-11T09:23:48.566Z,99.90
2018-12-11T09:26:16.819Z,99.90
2018-12-11T09:28:44.933Z,99.90
2018-12-11T09:31:13.059Z,99.90
2018-12-11T09:33:41.432Z,99.90
2018-12-11T09:36:09.646Z,99.90
2018-12-11T09:38:37.891Z,99.90
2018-12-11T09:41:06.122Z,99.90
2018-12-11T09:43:34.427Z,99.90
2018-12-11T09:46:02.738Z,99.90
2018-12-11T09:48:30.979Z,99.90
2018-12-11T09:50:59.216Z,99.90
2018-12-11T09:53:27.415Z,99.90
2018-12-11T09:55:55.649Z,99.90
2018-12-11T09:58:24.129Z,99.90
2018-12-11T10:00:52.301Z,99.90
2018-12-11T10:03:20.582Z,99.90
2018-12-11T10:05:48.919Z,99.90
2018-12-11T10:08:17.134Z,99.90
2018-12-11T10:10:45.349Z,99.90
2018-12-11T10:13:13.693Z,99.90
2018-12-11T10:15:41.993Z,99.90
2018-12-11T10:18:10.266Z,99.90
2018-12-11T10:20:38.520Z,99.90
2018-12-11T10:23:07.138Z,99.90
2018-12-11T10:25:35.427Z,99.90
2018-12-11T10:28:03.679Z,99.90
2018-12-11T10:30:37.320Z,99.90
2018-12-11T10:33:05.595Z,99.90
2018-12-11T10:35:33.798Z,99.90
2018-12-11T10:38:02.161Z,99.90
2018-12-11T10:40:30.419Z,99.90
2018-12-11T10:42:58.619Z,99.90
2018-12-11T10:45:26.834Z,99.90
2018-12-11T10:47:55.077Z,99.90
2018-12-11T10:50:23.325Z,99.90
2018-12-11T10:52:51.567Z,99.90
2018-12-11T10:55:19.701Z,99.90
2018-12-11T10:57:48.062Z,99.90
2018-12-11T11:00:21.801Z,99.90
2018-12-11T11:02:55.566Z,99.90
2018-12-11T11:05:23.794Z,99.90
2018-12-11T11:07:51.955Z,99.90
2018-12-11T11:10:20.316Z,99.90
2018-12-11T11:12:48.525Z,99.90
2018-12-11T11:15:16.813Z,99.90
2018-12-11T11:17:45.093Z,99.90
2018-12-11T11:20:13.364Z,99.90
2018-12-11T11:22:41.638Z,99.90
2018-12-11T11:25:09.869Z,99.90
2018-12-11T11:27:38.087Z,99.90
2018-12-11T11:30:07.814Z,99.90
2018-12-11T11:32:36.110Z,99.90
2018-12-11T11:35:05.147Z,99.90
2018-12-11T11:37:33.484Z,99.90
2018-12-11T11:40:01.710Z,99.90
2018-12-11T11:42:30.103Z,99.90
2018-12-11T11:44:58.531Z,99.90
2018-12-11T11:47:26.748Z,99.90
2018-12-11T11:49:55.047Z,99.90
2018-12-11T11:52:23.448Z,99.90
2018-12-11T11:54:51.742Z,99.90
2018-12-11T11:57:19.943Z,99.90
2018-12-11T11:59:48.208Z,99.90
2018-12-11T12:02:16.421Z,99.90
2018-12-11T12:04:44.670Z,99.90
2018-12-11T12:07:12.924Z,99.90
2018-12-11T12:09:41.159Z,99.90
2018-12-11T12:12:09.495Z,99.90
2018-12-11T12:14:37.726Z,99.90
2018-12-11T12:17:05.997Z,99.90
2018-12-11T12:19:34.251Z,99.90
2018-12-11T12:22:02.526Z,99.90
2018-12-11T12:24:30.729Z,99.90
2018-12-11T12:26:58.985Z,99.90
2018-12-11T12:29:27.287Z,99.90
2018-12-11T12:31:55.506Z,99.90
2018-12-11T12:34:23.616Z,99.90
2018-12-11T12:36:51.895Z,99.90
2018-12-11T12:39:20.143Z,99.90
2018-12-11T12:41:48.350Z,99.90
2018-12-11T12:44:16.531Z,99.90
2018-12-11T12:46:44.816Z,99.90
2018-12-11T12:49:13.067Z,99.90
2018-12-11T12:51:41.430Z,99.90
2018-12-11T12:54:09.627Z,99.90
2018-12-11T12:56:37.863Z,99.90
2018-12-11T12:59:06.085Z,99.90
2018-12-11T13:01:34.363Z,99.90
2018-12-11T13:04:02.578Z,99.90
2018-12-11T13:06:30.970Z,99.90
2018-12-11T13:08:59.349Z,99.90
2018-12-11T13:11:27.611Z,99.90
2018-12-11T13:13:55.815Z,99.90
2018-12-11T13:16:24.006Z,99.90
2018-12-11T13:18:52.291Z,99.90
2018-12-11T13:21:20.530Z,99.90
2018-12-11T13:23:48.747Z,99.90
2018-12-11T13:26:17.004Z,99.90
2018-12-11T13:28:45.211Z,99.90
2018-12-11T13:31:13.435Z,99.90
2018-12-11T13:33:41.633Z,99.90
2018-12-11T13:36:09.918Z,99.90
2018-12-11T13:38:38.175Z,99.90
2018-12-11T13:41:06.518Z,99.90
2018-12-11T13:43:34.942Z,99.90
2018-12-11T13:46:03.275Z,99.90
2018-12-11T13:48:31.614Z,99.90
2018-12-11T13:50:59.909Z,99.90
2018-12-11T13:53:28.146Z,99.90
2018-12-11T13:55:56.390Z,99.90
2018-12-11T13:58:24.761Z,99.90
2018-12-11T14:00:53.096Z,99.90
2018-12-11T14:03:21.350Z,99.90
2018-12-11T14:05:49.589Z,99.90
2018-12-11T14:08:17.831Z,99.90
2018-12-11T14:10:46.078Z,99.90
2018-12-11T14:13:14.350Z,99.90
2018-12-11T14:15:42.674Z,99.90
2018-12-11T14:18:10.852Z,99.90
2018-12-11T14:20:39.072Z,99.90
2018-12-11T14:23:07.331Z,99.90
2018-12-11T14:25:35.555Z,99.90
2018-12-11T14:28:03.774Z,99.90
2018-12-11T14:30:32.036Z,99.90
2018-12-11T14:33:00.260Z,99.90
2018-12-11T14:35:28.495Z,99.90
2018-12-11T14:37:56.727Z,99.90
2018-12-11T14:40:24.976Z,99.90
2018-12-11T14:42:53.218Z,99.90
2018-12-11T14:45:21.420Z,99.90
2018-12-11T14:47:49.674Z,99.70
2018-12-11T14:50:17.898Z,98.80
2018-12-11T14:52:46.110Z,99.60
2018-12-11T14:55:14.374Z,99.90
2018-12-11T14:57:42.611Z,99.90
2018-12-11T15:00:11.130Z,99.90
2018-12-11T15:02:39.841Z,99.90
2018-12-11T15:05:08.780Z,99.90
2018-12-11T15:07:37.075Z,99.90
2018-12-11T15:10:07.706Z,99.90
2018-12-11T15:12:36.007Z,99.90
2018-12-11T15:15:04.804Z,99.90
2018-12-11T15:17:33.050Z,99.90
2018-12-11T15:20:01.296Z,99.90
2018-12-11T15:22:29.483Z,99.90
2018-12-11T15:24:57.681Z,99.90
2018-12-11T15:27:25.914Z,99.90
2018-12-11T15:29:54.138Z,99.90
2018-12-11T15:32:22.408Z,99.90
2018-12-11T15:34:50.854Z,99.90
2018-12-11T15:37:19.083Z,99.90
2018-12-11T15:39:47.474Z,99.90
2018-12-11T15:42:15.687Z,99.90
2018-12-11T15:44:44.094Z,99.90
2018-12-11T15:47:12.329Z,99.90
2018-12-11T15:49:40.710Z,99.90
2018-12-11T15:52:09.022Z,99.90
2018-12-11T15:54:37.389Z,99.90
2018-12-11T15:57:05.709Z,99.90
2018-12-11T15:59:33.986Z,99.90
2018-12-11T16:02:02.180Z,99.90
2018-12-11T16:04:30.534Z,99.90
2018-12-11T16:06:58.728Z,99.90
2018-12-11T16:09:33.124Z,99.90
2018-12-11T16:12:01.489Z,99.90
2018-12-11T16:14:29.769Z,99.90
2018-12-11T16:17:01.661Z,99.90
2018-12-11T16:19:30.036Z,99.90
2018-12-11T16:21:58.277Z,99.90
2018-12-11T16:24:27.343Z,99.90
2018-12-11T16:26:55.683Z,99.90
2018-12-11T16:29:23.951Z,99.90
2018-12-11T16:31:52.127Z,99.90
2018-12-11T16:34:21.155Z,99.90
2018-12-11T16:36:49.534Z,99.90
2018-12-11T16:39:17.761Z,99.90
2018-12-11T16:41:46.012Z,99.90
2018-12-11T16:44:14.367Z,99.90
2018-12-11T16:46:42.760Z,99.90
2018-12-11T16:49:12.567Z,99.90
2018-12-11T16:51:40.902Z,99.90
2018-12-11T16:56:49.818Z,99.90
2018-12-11T16:59:18.114Z,99.90
2018-12-11T17:01:46.397Z,99.90
2018-12-11T17:04:14.725Z,99.90
2018-12-11T17:06:42.992Z,99.90
2018-12-11T17:09:14.481Z,99.90
2018-12-11T17:11:42.799Z,99.90
2018-12-11T17:14:11.026Z,99.90
2018-12-11T17:16:39.336Z,99.90
2018-12-11T17:19:07.558Z,99.90
2018-12-11T17:21:35.857Z,99.90
2018-12-11T17:24:04.271Z,99.90
2018-12-11T17:26:32.512Z,99.90
2018-12-11T17:29:00.646Z,99.90
2018-12-11T17:31:28.867Z,99.90
2018-12-11T17:33:57.553Z,99.90
2018-12-11T17:36:26.262Z,99.90
2018-12-11T17:38:54.491Z,99.90
2018-12-11T17:41:22.924Z,99.90
2018-12-11T17:43:51.161Z,99.90
2018-12-11T17:46:19.444Z,99.90
2018-12-11T17:48:47.747Z,99.90
2018-12-11T17:51:19.285Z,99.90
2018-12-11T17:53:47.834Z,99.90
2018-12-11T17:56:16.190Z,99.90
2018-12-11T17:58:44.410Z,99.90
2018-12-11T18:01:12.733Z,99.90
2018-12-11T18:03:40.954Z,99.90
2018-12-11T18:06:09.235Z,99.90
2018-12-11T18:08:39.264Z,99.90
2018-12-11T18:11:11.209Z,99.90
2018-12-11T18:13:39.736Z,99.90
2018-12-11T18:16:11.871Z,99.90
2018-12-11T18:18:51.998Z,99.90
2018-12-11T18:21:24.825Z,99.90
2018-12-11T18:23:59.414Z,99.90
2018-12-11T18:26:28.327Z,99.90
2018-12-11T18:28:58.803Z,99.90
2018-12-11T18:31:27.431Z,99.90
2018-12-11T18:33:57.035Z,99.90
2018-12-11T18:36:25.735Z,99.90
2018-12-11T18:38:54.646Z,99.90
2018-12-11T18:41:26.245Z,99.90
2018-12-11T18:43:55.039Z,99.90
2018-12-11T18:46:23.386Z,99.90
2018-12-11T18:48:53.975Z,99.90
2018-12-11T18:51:22.930Z,99.90
2018-12-11T18:53:51.290Z,99.90
2018-12-11T18:56:19.788Z,99.90
2018-12-11T18:58:49.229Z,99.90
2018-12-11T19:01:17.592Z,99.90
2018-12-11T19:03:49.220Z,99.90
2018-12-11T19:06:16.721Z,99.90
2018-12-11T19:08:46.996Z,99.90
2018-12-11T19:11:15.290Z,99.90
2018-12-11T19:13:43.653Z,99.90
2018-12-11T19:16:13.114Z,99.90
2018-12-11T19:18:42.351Z,99.90
2018-12-11T19:21:10.585Z,99.90
2018-12-11T19:24:46.459Z,99.90
2018-12-11T19:27:14.701Z,99.90
2018-12-11T19:29:42.985Z,99.90
2018-12-11T19:32:11.275Z,99.90
2018-12-11T19:34:39.458Z,99.90
2018-12-11T19:37:07.727Z,99.90
2018-12-11T19:39:35.986Z,99.90
2018-12-11T19:42:04.241Z,99.90
2018-12-11T19:44:32.523Z,99.90
2018-12-11T19:47:00.888Z,99.90
2018-12-11T19:49:29.112Z,99.90
2018-12-11T19:51:57.734Z,99.90
2018-12-11T19:54:25.954Z,99.90
2018-12-11T19:56:54.308Z,99.90
2018-12-11T19:59:22.529Z,99.90
2018-12-11T20:01:50.853Z,99.90
2018-12-11T20:04:19.278Z,99.90
2018-12-11T20:06:47.628Z,99.90
2018-12-11T20:09:15.968Z,99.90
2018-12-11T20:11:44.191Z,99.90
2018-12-11T20:14:12.430Z,99.90
2018-12-11T20:16:40.704Z,99.90
2018-12-11T20:19:09.193Z,99.90
2018-12-11T20:21:37.671Z,99.90
2018-12-11T20:24:05.984Z,99.90
2018-12-11T20:26:39.408Z,99.90
2018-12-11T20:29:04.547Z,99.90
2018-12-11T20:31:32.787Z,99.90
2018-12-11T20:34:01.767Z,99.90
2018-12-11T20:36:29.977Z,99.90
2018-12-11T20:38:58.315Z,99.90
2018-12-11T20:41:26.502Z,99.90
2018-12-11T20:43:54.737Z,99.90
2018-12-11T20:46:23.031Z,99.90
2018-12-11T20:48:51.382Z,99.90
2018-12-11T20:51:19.606Z,99.90
2018-12-11T20:53:47.807Z,99.90
2018-12-11T20:56:16.040Z,99.90
2018-12-11T20:58:44.241Z,99.90
2018-12-11T21:01:12.563Z,99.90
2018-12-11T21:03:40.839Z,99.90
2018-12-11T21:06:09.027Z,99.90
2018-12-11T21:08:37.314Z,99.90
2018-12-11T21:11:05.559Z,99.90
2018-12-11T21:13:33.769Z,99.90
2018-12-11T21:16:02.318Z,99.90
2018-12-11T21:18:30.557Z,99.90
2018-12-11T21:20:58.974Z,99.90
2018-12-11T21:23:27.502Z,99.90
2018-12-11T21:25:57.097Z,99.90
2018-12-11T21:28:25.668Z,99.90
2018-12-11T21:30:53.955Z,99.90
2018-12-11T21:33:22.231Z,99.90
2018-12-11T21:35:50.500Z,99.90
2018-12-11T21:38:19.886Z,99.90
2018-12-11T21:40:48.177Z,99.90
2018-12-11T21:43:16.430Z,99.90
2018-12-11T21:45:45.085Z,99.90
2018-12-11T21:48:13.415Z,99.90
2018-12-11T21:50:41.819Z,99.90
2018-12-11T21:53:10.084Z,99.90
2018-12-11T21:55:38.290Z,99.90
2018-12-11T21:58:06.764Z,99.90
2018-12-11T22:00:34.989Z,99.90
2018-12-11T22:03:03.445Z,99.90
2018-12-11T22:05:31.711Z,99.90
2018-12-11T22:07:59.905Z,99.90
2018-12-11T22:10:28.323Z,99.90
2018-12-11T22:12:56.707Z,99.90
2018-12-11T22:15:24.915Z,99.90
2018-12-11T22:17:53.042Z,99.90
2018-12-11T22:20:21.326Z,99.90
2018-12-11T22:22:49.920Z,99.90
2018-12-11T22:25:18.319Z,99.90
2018-12-11T22:27:46.487Z,99.90
2018-12-11T22:30:14.899Z,99.90
2018-12-11T22:32:43.377Z,99.90
2018-12-11T22:35:11.677Z,99.90
2018-12-11T22:37:39.811Z,99.90
2018-12-11T22:40:08.028Z,99.90
2018-12-11T22:42:36.229Z,99.90
2018-12-11T22:45:04.789Z,99.90
2018-12-11T22:47:32.983Z,99.90
2018-12-11T22:50:01.286Z,99.90
2018-12-11T22:52:29.966Z,99.90
2018-12-11T22:54:58.498Z,99.90
2018-12-11T22:57:26.796Z,99.90
2018-12-11T22:59:54.961Z,99.90
2018-12-11T23:02:24.580Z,99.90
2018-12-11T23:04:52.797Z,99.90
2018-12-11T23:07:21.048Z,99.90
2018-12-11T23:09:49.307Z,99.90
2018-12-11T23:12:17.558Z,99.90
2018-12-11T23:14:45.777Z,99.90
2018-12-11T23:17:13.978Z,99.90
2018-12-11T23:19:42.259Z,99.90
2018-12-11T23:22:10.544Z,99.90
2018-12-11T23:24:38.982Z,99.90
2018-12-11T23:27:07.274Z,99.90
2018-12-11T23:29:35.519Z,99.90
2018-12-11T23:32:03.738Z,99.90
2018-12-11T23:34:31.902Z,99.90
2018-12-11T23:37:00.183Z,99.90
2018-12-11T23:39:28.330Z,99.90
2018-12-11T23:41:56.538Z,99.90
2018-12-11T23:44:24.690Z,99.90
2018-12-11T23:46:52.854Z,99.90
2018-12-11T23:49:21.054Z,99.90
2018-12-11T23:51:49.306Z,99.90
2018-12-11T23:54:17.538Z,99.90
2018-12-11T23:56:45.682Z,99.90
2018-12-11T23:59:13.925Z,99.90
